Time;durP1;ratioP1;P1;durP2;ratioP2;P2;SDS_P1;SDS_P2;PMS_P1;PMS_P2;Temp;Humidity;BMP_temperature;BMP_pressure;BME280_temperature;BME280_humidity;BME280_pressure;Samples;Min_cycle;Max_cycle;Signal;HPM_P1;HPM_P2
2022/04/13 00:00:27;;;;;;;7.93;6.45;;;13.70;99.90;;;;;;5039272;28;20041;-74
2022/04/13 00:02:53;;;;;;;8.38;6.22;;;13.70;99.90;;;;;;5039784;28;20037;-74
2022/04/13 00:05:19;;;;;;;8.95;6.68;;;13.60;99.90;;;;;;5042706;28;20047;-74
2022/04/13 00:07:45;;;;;;;7.63;5.70;;;13.50;99.90;;;;;;5026739;28;20072;-74
2022/04/13 00:10:11;;;;;;;9.35;6.93;;;13.50;99.90;;;;;;5043397;28;20353;-74
2022/04/13 00:12:37;;;;;;;9.20;6.28;;;13.40;99.90;;;;;;5026535;28;20068;-74
2022/04/13 00:15:04;;;;;;;7.43;6.38;;;13.40;99.90;;;;;;5026820;28;20037;-74
2022/04/13 00:17:31;;;;;;;8.20;6.03;;;13.30;99.90;;;;;;5042967;28;20069;-74
2022/04/13 00:19:58;;;;;;;6.80;5.93;;;13.40;99.90;;;;;;5043184;28;20072;-74
2022/04/13 00:22:23;;;;;;;7.50;5.68;;;13.30;99.90;;;;;;5042616;28;20045;-74
2022/04/13 00:24:49;;;;;;;8.45;5.78;;;13.20;99.90;;;;;;5043123;28;20064;-73
2022/04/13 00:27:15;;;;;;;9.40;6.90;;;13.20;99.90;;;;;;5043071;28;20030;-74
2022/04/13 00:29:41;;;;;;;9.23;6.47;;;13.10;99.90;;;;;;5042603;28;20037;-74
2022/04/13 00:32:07;;;;;;;7.97;6.25;;;13.10;99.90;;;;;;5026643;28;20048;-74
2022/04/13 00:34:32;;;;;;;9.52;6.68;;;13.10;99.90;;;;;;5042837;28;20040;-74
2022/04/13 00:36:58;;;;;;;7.72;6.72;;;12.90;99.90;;;;;;5042883;28;20112;-74
2022/04/13 00:39:27;;;;;;;8.32;7.05;;;12.90;99.90;;;;;;5042325;28;20315;-74
2022/04/13 00:42:03;;;;;;;9.75;6.47;;;13.00;99.90;;;;;;5042752;28;20032;-74
2022/04/13 00:44:29;;;;;;;11.65;7.03;;;12.90;99.90;;;;;;5042429;28;20052;-74
2022/04/13 00:46:56;;;;;;;8.88;7.03;;;12.80;99.90;;;;;;5042781;28;20049;-74
2022/04/13 00:49:23;;;;;;;8.07;6.85;;;12.80;99.90;;;;;;5042620;28;20298;-73
2022/04/13 00:51:59;;;;;;;8.98;6.28;;;12.70;99.90;;;;;;5042541;28;20029;-73
2022/04/13 00:54:36;;;;;;;9.82;6.70;;;12.70;99.90;;;;;;5042257;28;20021;-73
2022/04/13 00:57:09;;;;;;;9.63;6.82;;;12.60;99.90;;;;;;5025543;28;20161;-73
2022/04/13 00:59:39;;;;;;;11.55;7.45;;;12.60;99.90;;;;;;5041584;28;20101;-73
2022/04/13 01:02:08;;;;;;;11.15;6.97;;;12.60;99.90;;;;;;5059059;28;20072;-74
2022/04/13 01:04:35;;;;;;;8.68;7.10;;;12.50;99.90;;;;;;5025491;28;20029;-74
2022/04/13 01:07:02;;;;;;;8.25;6.60;;;12.60;99.90;;;;;;5025868;28;20077;-74
2022/04/13 01:09:30;;;;;;;9.05;7.07;;;12.50;99.90;;;;;;5025451;28;20029;-74
2022/04/13 01:11:55;;;;;;;8.70;7.32;;;12.50;99.90;;;;;;5025946;28;20041;-73
2022/04/13 01:14:21;;;;;;;9.32;6.78;;;12.50;99.90;;;;;;5042284;28;20049;-73
2022/04/13 01:16:47;;;;;;;8.25;6.75;;;12.60;99.90;;;;;;5058488;28;20068;-72
2022/04/13 01:19:16;;;;;;;8.05;6.68;;;12.60;99.90;;;;;;5041975;28;20042;-73
2022/04/13 01:21:58;;;;;;;8.68;6.70;;;12.60;99.90;;;;;;5009018;28;20037;-74
2022/04/13 01:24:25;;;;;;;9.15;6.78;;;12.60;99.90;;;;;;5025413;28;20057;-73
2022/04/13 01:26:51;;;;;;;8.45;6.60;;;12.60;99.90;;;;;;5058499;28;20071;-73
2022/04/13 01:29:17;;;;;;;7.30;5.88;;;12.70;99.90;;;;;;5041936;28;20037;-74
2022/04/13 01:31:44;;;;;;;8.15;6.40;;;12.60;99.90;;;;;;5024994;28;20051;-74
2022/04/13 01:34:10;;;;;;;8.88;6.88;;;12.70;99.90;;;;;;5025289;28;20091;-74
2022/04/13 01:36:36;;;;;;;9.82;6.57;;;12.70;99.90;;;;;;5041489;28;20313;-73
2022/04/13 01:39:04;;;;;;;10.77;7.18;;;12.70;99.90;;;;;;5075122;28;20232;-74
2022/04/13 01:41:30;;;;;;;9.50;6.60;;;12.70;99.90;;;;;;5024826;28;20025;-73
2022/04/13 01:43:56;;;;;;;10.32;7.13;;;12.70;99.90;;;;;;5041580;28;20026;-73
2022/04/13 01:46:22;;;;;;;8.90;6.90;;;12.70;99.90;;;;;;5024800;28;20118;-73
2022/04/13 01:48:47;;;;;;;8.20;7.00;;;12.70;99.90;;;;;;5041231;28;20049;-73
2022/04/13 01:51:14;;;;;;;9.48;6.93;;;12.70;99.90;;;;;;5024953;28;20331;-74
2022/04/13 01:53:40;;;;;;;9.32;7.53;;;12.80;99.90;;;;;;5024722;28;20104;-73
2022/04/13 01:56:06;;;;;;;10.00;7.20;;;12.70;99.90;;;;;;5024959;28;20033;-73
2022/04/13 01:58:32;;;;;;;11.75;7.82;;;12.70;99.90;;;;;;5041064;28;20037;-73
2022/04/13 02:00:58;;;;;;;9.13;7.40;;;12.70;99.90;;;;;;5024773;28;20100;-73
2022/04/13 02:03:25;;;;;;;8.07;6.95;;;12.80;99.90;;;;;;5041077;28;20039;-73
2022/04/13 02:05:52;;;;;;;10.05;7.82;;;12.70;99.90;;;;;;5057804;28;20089;-73
2022/04/13 02:08:19;;;;;;;9.45;7.43;;;12.60;99.90;;;;;;5024745;28;20033;-73
2022/04/13 02:10:45;;;;;;;10.13;7.38;;;12.60;99.90;;;;;;5074159;28;20045;-74
2022/04/13 02:13:11;;;;;;;9.32;7.30;;;12.70;99.90;;;;;;5041168;28;20044;-74
2022/04/13 02:15:38;;;;;;;9.25;7.88;;;12.70;99.90;;;;;;5074183;28;20041;-74
2022/04/13 02:18:05;;;;;;;10.75;7.65;;;12.60;99.90;;;;;;5041133;28;20060;-73
2022/04/13 02:20:30;;;;;;;11.43;8.27;;;12.70;99.90;;;;;;5041192;28;20358;-74
2022/04/13 02:22:56;;;;;;;12.82;7.93;;;12.80;99.90;;;;;;5074370;28;20042;-74
2022/04/13 02:25:22;;;;;;;12.23;8.27;;;12.80;99.90;;;;;;5040808;28;20271;-74
2022/04/13 02:27:47;;;;;;;11.48;8.68;;;12.70;99.90;;;;;;5023569;28;20084;-73
2022/04/13 02:30:13;;;;;;;9.50;8.00;;;12.60;99.90;;;;;;5008052;28;20048;-74
2022/04/13 02:32:40;;;;;;;10.95;8.38;;;12.70;99.90;;;;;;5007841;28;20035;-73
2022/04/13 02:35:07;;;;;;;12.50;8.45;;;12.70;99.90;;;;;;5074004;28;20040;-74
2022/04/13 02:37:32;;;;;;;14.63;8.48;;;12.50;99.90;;;;;;5040212;28;20040;-74
2022/04/13 02:39:58;;;;;;;12.43;8.73;;;12.70;99.90;;;;;;5024039;28;20072;-74
2022/04/13 02:42:24;;;;;;;10.23;7.82;;;12.60;99.90;;;;;;5040535;28;20029;-74
2022/04/13 02:44:49;;;;;;;11.55;8.80;;;12.40;99.90;;;;;;5023696;28;20030;-74
2022/04/13 02:47:15;;;;;;;13.68;8.90;;;12.50;99.90;;;;;;5023907;28;20053;-74
2022/04/13 02:49:41;;;;;;;11.55;8.73;;;12.40;99.90;;;;;;5040097;28;20072;-74
2022/04/13 02:52:07;;;;;;;12.90;8.95;;;12.30;99.90;;;;;;5073724;28;20061;-74
2022/04/13 02:54:33;;;;;;;13.48;8.68;;;12.50;99.90;;;;;;5040025;28;20239;-75
2022/04/13 02:56:59;;;;;;;12.30;8.85;;;12.40;99.90;;;;;;5040379;28;20137;-74
2022/04/13 02:59:24;;;;;;;12.75;8.73;;;12.40;99.90;;;;;;5007698;28;20037;-74
2022/04/13 03:01:50;;;;;;;14.70;9.88;;;12.40;99.90;;;;;;5056585;28;20105;-74
2022/04/13 03:04:16;;;;;;;16.13;9.57;;;12.30;99.90;;;;;;5057081;28;20021;-74
2022/04/13 03:06:42;;;;;;;19.48;10.15;;;12.20;99.90;;;;;;5023427;28;20079;-73
2022/04/13 03:09:08;;;;;;;12.90;9.15;;;12.20;99.90;;;;;;5040168;28;20084;-73
2022/04/13 03:11:34;;;;;;;12.75;9.38;;;12.20;99.90;;;;;;5040032;28;20025;-73
2022/04/13 03:13:59;;;;;;;13.82;9.82;;;12.30;99.90;;;;;;5023783;28;20128;-73
2022/04/13 03:16:25;;;;;;;13.25;9.68;;;12.10;99.90;;;;;;5073424;28;20197;-72
2022/04/13 03:18:51;;;;;;;14.82;10.43;;;12.20;99.90;;;;;;5039818;28;20048;-73
2022/04/13 03:21:17;;;;;;;14.02;10.68;;;12.20;99.90;;;;;;5023518;28;20065;-73
2022/04/13 03:23:43;;;;;;;12.90;9.75;;;12.20;99.90;;;;;;5039562;28;20034;-72
2022/04/13 03:26:09;;;;;;;13.85;10.07;;;12.20;99.90;;;;;;5023929;28;20303;-72
2022/04/13 03:28:34;;;;;;;14.65;10.60;;;12.30;99.90;;;;;;5023593;28;20025;-73
2022/04/13 03:31:00;;;;;;;17.90;10.73;;;12.20;99.90;;;;;;5023380;28;20048;-73
2022/04/13 03:33:26;;;;;;;17.13;11.25;;;12.20;99.90;;;;;;5023748;28;20312;-72
2022/04/13 03:35:52;;;;;;;13.88;10.80;;;12.10;99.90;;;;;;5039758;28;20048;-73
2022/04/13 03:38:17;;;;;;;14.32;10.40;;;12.00;99.90;;;;;;5040150;28;20042;-73
2022/04/13 03:40:44;;;;;;;15.65;10.45;;;12.10;99.90;;;;;;5043171;28;20108;-73
2022/04/13 03:43:09;;;;;;;17.50;10.75;;;12.20;99.90;;;;;;5027440;28;20036;-73
2022/04/13 03:45:36;;;;;;;16.63;11.50;;;12.00;99.90;;;;;;5043647;28;20100;-73
2022/04/13 03:48:02;;;;;;;15.10;11.52;;;12.20;99.90;;;;;;5011332;28;20040;-73
2022/04/13 03:50:27;;;;;;;18.67;11.27;;;12.20;99.90;;;;;;5027469;28;20324;-73
2022/04/13 03:52:53;;;;;;;14.40;10.57;;;12.20;99.90;;;;;;5043486;28;20033;-72
2022/04/13 03:55:22;;;;;;;13.48;11.07;;;12.00;99.90;;;;;;5027300;28;20064;-72
2022/04/13 03:57:50;;;;;;;17.20;11.90;;;12.10;99.90;;;;;;5043262;28;20041;-72
2022/04/13 04:00:16;;;;;;;15.05;11.40;;;12.30;99.90;;;;;;5027134;28;20049;-72
2022/04/13 04:02:43;;;;;;;15.48;11.57;;;12.20;99.90;;;;;;5043316;28;20069;-72
2022/04/13 04:05:10;;;;;;;16.60;12.05;;;12.10;99.90;;;;;;5043428;28;20029;-72
2022/04/13 04:07:36;;;;;;;20.38;11.50;;;12.40;99.90;;;;;;5043456;28;20072;-73
2022/04/13 04:10:03;;;;;;;16.55;11.50;;;12.10;99.90;;;;;;5026766;28;20029;-73
2022/04/13 04:12:29;;;;;;;17.45;12.35;;;12.40;99.90;;;;;;5027041;28;20043;-74
2022/04/13 04:15:00;;;;;;;18.30;12.32;;;12.40;99.90;;;;;;5010039;28;20046;-74
2022/04/13 04:17:26;;;;;;;16.98;11.23;;;12.40;99.90;;;;;;5043244;28;20242;-74
2022/04/13 04:19:52;;;;;;;15.90;11.85;;;12.40;99.90;;;;;;5026228;28;20034;-74
2022/04/13 04:22:17;;;;;;;13.40;10.45;;;12.20;99.90;;;;;;5026798;28;20116;-73
2022/04/13 04:24:43;;;;;;;15.63;10.88;;;12.40;99.90;;;;;;5042755;28;20048;-74
2022/04/13 04:27:09;;;;;;;14.43;10.77;;;12.30;99.90;;;;;;5026633;28;20033;-73
2022/04/13 04:29:35;;;;;;;16.55;11.43;;;12.50;99.90;;;;;;5010664;28;20060;-74
2022/04/13 04:32:02;;;;;;;17.08;11.13;;;12.20;99.90;;;;;;5042788;28;20049;-73
2022/04/13 04:34:28;;;;;;;20.45;10.55;;;12.20;99.90;;;;;;5026535;28;20379;-74
2022/04/13 04:36:53;;;;;;;17.63;11.60;;;12.50;99.90;;;;;;5042673;28;20113;-75
2022/04/13 04:39:19;;;;;;;16.50;11.82;;;12.40;99.90;;;;;;5042666;28;20256;-74
2022/04/13 04:41:45;;;;;;;17.27;12.48;;;12.20;99.90;;;;;;5042625;28;20025;-74
2022/04/13 04:44:11;;;;;;;19.05;11.55;;;12.20;99.90;;;;;;5043198;28;20033;-75
2022/04/13 04:46:37;;;;;;;17.10;11.10;;;12.40;99.90;;;;;;5041832;28;20235;-74
2022/04/13 04:49:04;;;;;;;19.52;12.45;;;12.40;99.90;;;;;;5024633;28;20226;-74
2022/04/13 04:51:32;;;;;;;16.30;11.75;;;12.40;99.90;;;;;;5024586;28;20037;-74
2022/04/13 04:54:02;;;;;;;16.52;11.43;;;12.10;99.90;;;;;;5024825;28;20052;-74
2022/04/13 04:56:28;;;;;;;22.70;12.10;;;12.10;99.90;;;;;;5041435;28;20053;-74
2022/04/13 04:58:54;;;;;;;16.90;11.30;;;12.10;99.90;;;;;;5040840;28;20318;-74
2022/04/13 05:01:23;;;;;;;15.82;11.18;;;12.10;99.90;;;;;;5041100;28;20056;-75
2022/04/13 05:03:58;;;;;;;14.23;10.88;;;12.10;99.90;;;;;;5025515;28;20188;-74
2022/04/13 05:06:28;;;;;;;17.00;12.52;;;12.30;99.90;;;;;;5024650;28;20037;-74
2022/04/13 05:08:57;;;;;;;17.23;11.30;;;12.10;99.90;;;;;;5040660;28;20052;-73
2022/04/13 05:11:23;;;;;;;17.88;12.60;;;12.40;99.90;;;;;;5041180;28;20286;-72
2022/04/13 05:13:50;;;;;;;18.83;11.73;;;12.30;99.90;;;;;;5040580;28;20037;-72
2022/04/13 05:16:16;;;;;;;17.05;11.82;;;12.20;99.90;;;;;;5024509;28;20030;-72
2022/04/13 05:18:45;;;;;;;17.60;12.13;;;12.20;99.90;;;;;;5024670;28;20032;-72
2022/04/13 05:21:11;;;;;;;16.45;12.18;;;12.60;99.90;;;;;;5040961;28;20045;-72
2022/04/13 05:23:37;;;;;;;15.77;11.13;;;12.30;99.90;;;;;;5024394;28;20377;-72
2022/04/13 05:26:03;;;;;;;18.00;12.73;;;12.40;99.90;;;;;;5040366;28;20030;-72
2022/04/13 05:28:29;;;;;;;19.10;13.63;;;12.40;99.90;;;;;;5024289;28;20032;-72
2022/04/13 05:30:56;;;;;;;17.42;12.23;;;12.40;99.90;;;;;;5040018;28;20037;-73
2022/04/13 05:33:22;;;;;;;16.60;11.95;;;12.50;99.90;;;;;;5024236;28;20247;-73
2022/04/13 05:35:47;;;;;;;21.52;12.60;;;12.90;99.90;;;;;;5023626;28;20113;-73
2022/04/13 05:38:13;;;;;;;15.02;11.05;;;12.60;99.90;;;;;;5007608;28;20036;-73
2022/04/13 05:40:39;;;;;;;20.48;12.55;;;12.50;99.90;;;;;;5007577;28;20247;-74
2022/04/13 05:43:05;;;;;;;19.30;12.57;;;12.70;99.90;;;;;;5039955;28;20045;-73
2022/04/13 05:48:10;;;;;;;20.15;12.23;;;12.60;99.90;;;;;;5170414;27;1268721;-72
2022/04/13 05:50:36;;;;;;;18.70;12.57;;;12.60;99.90;;;;;;5111181;27;20229;-72
2022/04/13 05:53:01;;;;;;;20.20;13.05;;;12.60;99.90;;;;;;5162100;27;20018;-72
2022/04/13 05:55:27;;;;;;;22.00;13.02;;;12.60;99.90;;;;;;5162307;27;20392;-73
2022/04/13 05:57:53;;;;;;;16.38;12.00;;;12.90;99.90;;;;;;5144605;27;20165;-73
2022/04/13 06:00:19;;;;;;;19.00;11.98;;;12.70;99.90;;;;;;5162026;27;20031;-73
2022/04/13 06:02:44;;;;;;;17.55;12.27;;;12.80;99.90;;;;;;5162182;27;20026;-74
2022/04/13 06:05:11;;;;;;;18.88;11.88;;;12.70;99.90;;;;;;5161601;27;20214;-74
2022/04/13 06:07:37;;;;;;;18.02;11.95;;;12.70;99.90;;;;;;5144843;27;20040;-73
2022/04/13 06:10:04;;;;;;;19.33;12.73;;;12.70;99.90;;;;;;5144552;27;20022;-74
2022/04/13 06:12:29;;;;;;;22.83;12.85;;;13.10;99.90;;;;;;5162154;27;20254;-74
2022/04/13 06:15:05;;;;;;;21.63;13.20;;;13.00;99.90;;;;;;5123281;27;20105;-74
2022/04/13 06:17:31;;;;;;;21.40;13.77;;;13.00;99.90;;;;;;5141286;27;20054;-74
2022/04/13 06:19:57;;;;;;;17.23;12.88;;;13.10;99.90;;;;;;5157989;27;20035;-73
2022/04/13 06:22:22;;;;;;;20.67;13.70;;;13.40;99.90;;;;;;5141326;27;20130;-72
2022/04/13 06:24:51;;;;;;;19.65;12.90;;;13.30;99.90;;;;;;5123657;27;20195;-72
2022/04/13 06:27:19;;;;;;;23.63;13.73;;;13.80;99.90;;;;;;5158058;27;20385;-72
2022/04/13 06:29:45;;;;;;;17.30;12.25;;;13.90;99.90;;;;;;5106941;27;20092;-72
2022/04/13 06:32:12;;;;;;;19.98;13.13;;;13.80;99.90;;;;;;5124084;27;20026;-72
2022/04/13 06:34:38;;;;;;;20.33;13.45;;;14.20;99.90;;;;;;5123830;27;20104;-72
2022/04/13 06:37:04;;;;;;;19.98;13.13;;;13.90;99.90;;;;;;5140315;27;20046;-72
2022/04/13 06:39:30;;;;;;;23.13;13.50;;;14.20;99.90;;;;;;5123864;27;20034;-72
2022/04/13 06:41:56;;;;;;;17.27;12.30;;;13.80;99.90;;;;;;5140378;27;20039;-73
2022/04/13 06:44:21;;;;;;;18.95;13.38;;;13.90;99.90;;;;;;5157991;27;20027;-72
2022/04/13 06:46:49;;;;;;;18.52;12.77;;;13.90;99.90;;;;;;5140604;27;20333;-74
2022/04/13 06:49:15;;;;;;;21.77;13.48;;;14.20;99.90;;;;;;5109552;27;20105;-73
2022/04/13 06:51:41;;;;;;;20.20;12.95;;;14.50;99.90;;;;;;5140598;27;20034;-74
2022/04/13 06:54:06;;;;;;;19.17;12.18;;;14.00;99.90;;;;;;5140064;27;20027;-74
2022/04/13 06:56:32;;;;;;;17.55;11.93;;;14.50;99.90;;;;;;5140316;27;20309;-74
2022/04/13 06:58:59;;;;;;;18.33;11.93;;;14.40;99.90;;;;;;5129675;27;20027;-74
2022/04/13 07:01:25;;;;;;;17.55;11.77;;;14.60;99.90;;;;;;5126666;27;20134;-73
2022/04/13 07:03:51;;;;;;;16.02;12.40;;;14.70;99.90;;;;;;5126542;27;20109;-74
2022/04/13 07:06:17;;;;;;;19.20;12.18;;;14.60;99.90;;;;;;5126416;27;20035;-73
2022/04/13 07:08:42;;;;;;;21.88;13.23;;;14.40;99.90;;;;;;5126533;27;20031;-74
2022/04/13 07:11:08;;;;;;;18.13;12.30;;;14.70;99.90;;;;;;5125970;27;20175;-73
2022/04/13 07:13:34;;;;;;;20.45;13.13;;;15.00;99.90;;;;;;5109174;27;20038;-74
2022/04/13 07:15:59;;;;;;;17.67;12.45;;;15.10;99.90;;;;;;5126130;27;20026;-73
2022/04/13 07:18:25;;;;;;;20.83;12.90;;;15.10;99.90;;;;;;5109445;27;20031;-73
2022/04/13 07:20:51;;;;;;;19.63;12.13;;;15.10;99.90;;;;;;5109645;27;20023;-73
2022/04/13 07:23:17;;;;;;;18.27;11.25;;;15.30;99.90;;;;;;5126233;27;20102;-72
2022/04/13 07:25:42;;;;;;;17.30;10.63;;;15.20;99.90;;;;;;5136594;27;20034;-72
2022/04/13 07:28:08;;;;;;;16.23;11.38;;;15.40;99.90;;;;;;5125366;27;20050;-73
2022/04/13 07:30:34;;;;;;;15.43;10.68;;;15.50;99.90;;;;;;5111347;27;20034;-72
2022/04/13 07:33:01;;;;;;;21.45;11.63;;;15.20;99.90;;;;;;5145809;27;20046;-72
2022/04/13 07:35:29;;;;;;;17.10;11.25;;;15.60;99.90;;;;;;5146785;27;20061;-72
2022/04/13 07:37:55;;;;;;;11.65;9.95;;;15.40;99.90;;;;;;5128968;27;20333;-72
2022/04/13 07:40:22;;;;;;;13.15;9.98;;;15.30;99.90;;;;;;5129433;27;20037;-73
2022/04/13 07:42:47;;;;;;;15.82;11.32;;;15.30;99.90;;;;;;5113095;27;20038;-72
2022/04/13 07:45:13;;;;;;;16.50;10.73;;;15.40;99.90;;;;;;5146283;27;20041;-73
2022/04/13 07:47:39;;;;;;;15.75;11.00;;;15.50;99.90;;;;;;5111896;27;20066;-73
2022/04/13 07:50:12;;;;;;;15.50;10.95;;;15.40;99.90;;;;;;5129038;27;20217;-73
2022/04/13 07:52:40;;;;;;;14.20;10.45;;;15.40;99.90;;;;;;5130458;27;20097;-72
2022/04/13 07:55:09;;;;;;;21.00;11.63;;;16.00;99.90;;;;;;5146340;27;20035;-72
2022/04/13 07:57:36;;;;;;;17.77;10.88;;;15.80;99.90;;;;;;5146808;27;20087;-73
2022/04/13 08:00:03;;;;;;;19.48;11.30;;;15.70;99.90;;;;;;5146764;27;20030;-73
2022/04/13 08:02:29;;;;;;;17.85;11.82;;;15.60;99.90;;;;;;5129439;27;20038;-72
2022/04/13 08:04:57;;;;;;;16.17;11.57;;;15.50;99.90;;;;;;5129767;27;20202;-72
2022/04/13 08:07:24;;;;;;;17.08;11.68;;;15.40;99.90;;;;;;5129470;27;20225;-72
2022/04/13 08:09:50;;;;;;;16.63;11.00;;;15.60;99.90;;;;;;5145193;27;20051;-72
2022/04/13 08:12:16;;;;;;;14.82;11.13;;;15.50;99.90;;;;;;5146404;27;20303;-72
2022/04/13 08:14:41;;;;;;;19.08;11.07;;;15.30;99.90;;;;;;5112200;27;20038;-72
2022/04/13 08:17:07;;;;;;;14.80;11.70;;;15.60;99.90;;;;;;5128698;27;20080;-73
2022/04/13 08:19:33;;;;;;;15.48;11.77;;;15.50;99.90;;;;;;5146740;27;20288;-72
2022/04/13 08:21:59;;;;;;;14.48;10.68;;;15.60;99.90;;;;;;5146052;27;20034;-74
2022/04/13 08:24:24;;;;;;;17.83;12.38;;;15.80;99.90;;;;;;5129153;27;20058;-73
2022/04/13 08:26:50;;;;;;;18.17;11.60;;;15.50;99.90;;;;;;5145768;27;20088;-74
2022/04/13 08:29:16;;;;;;;18.38;11.52;;;16.00;99.90;;;;;;5108693;27;20035;-74
2022/04/13 08:31:41;;;;;;;14.18;10.73;;;16.00;99.90;;;;;;5125311;27;20026;-73
2022/04/13 08:34:07;;;;;;;15.30;10.85;;;16.00;99.90;;;;;;5125064;27;20141;-75
2022/04/13 08:36:33;;;;;;;15.98;10.85;;;16.00;99.90;;;;;;5092047;27;20035;-74
2022/04/13 08:38:59;;;;;;;16.52;10.38;;;16.50;99.90;;;;;;5108008;27;20073;-74
2022/04/13 08:42:01;;;;;;;16.33;10.52;;;16.20;99.90;;;;;;5091901;27;20068;-74
2022/04/13 08:44:39;;;;;;;15.25;9.60;;;16.30;99.90;;;;;;5111365;27;20325;-73
2022/04/13 08:47:12;;;;;;;16.98;10.05;;;16.70;99.90;;;;;;5123735;27;20110;-73
2022/04/13 08:49:44;;;;;;;11.45;9.20;;;16.80;99.90;;;;;;5124461;27;20114;-73
2022/04/13 08:52:20;;;;;;;17.73;10.23;;;17.10;99.90;;;;;;5124086;27;20047;-74
2022/04/13 08:55:16;;;;;;;15.50;10.10;;;16.90;99.90;;;;;;5107647;27;20354;-73
2022/04/13 08:57:48;;;;;;;14.93;8.93;;;17.10;99.90;;;;;;5122468;27;20119;-73
2022/04/13 09:00:18;;;;;;;15.85;9.82;;;17.60;99.90;;;;;;5107065;27;20031;-73
2022/04/13 09:02:44;;;;;;;13.80;8.55;;;17.80;99.90;;;;;;5124449;27;20320;-73
2022/04/13 09:05:14;;;;;;;12.10;9.70;;;17.80;99.90;;;;;;5123598;27;20043;-72
2022/04/13 09:07:42;;;;;;;12.63;9.30;;;17.50;99.90;;;;;;5124153;27;20082;-73
2022/04/13 09:10:12;;;;;;;11.95;8.77;;;17.50;99.90;;;;;;5123750;27;20031;-73
2022/04/13 09:12:39;;;;;;;11.88;8.05;;;17.30;99.90;;;;;;5124057;27;20027;-73
2022/04/13 09:15:06;;;;;;;11.43;8.40;;;17.70;99.90;;;;;;5090029;27;20027;-72
2022/04/13 09:17:32;;;;;;;11.70;7.47;;;17.60;99.90;;;;;;5124086;27;20213;-73
2022/04/13 09:20:00;;;;;;;10.18;7.85;;;17.20;99.90;;;;;;5107224;27;20035;-74
2022/04/13 09:22:26;;;;;;;8.82;7.45;;;17.20;99.90;;;;;;5090075;28;20072;-72
2022/04/13 09:24:52;;;;;;;12.18;7.80;;;17.40;99.90;;;;;;5106688;27;20038;-73
2022/04/13 09:27:20;;;;;;;10.77;7.10;;;17.70;99.90;;;;;;5123431;27;20035;-73
2022/04/13 09:29:47;;;;;;;10.77;7.50;;;17.80;99.90;;;;;;5090306;27;20099;-75
2022/04/13 09:32:14;;;;;;;12.38;7.90;;;18.00;99.90;;;;;;5095266;27;20026;-72
2022/04/13 09:34:40;;;;;;;10.60;7.30;;;18.30;99.90;;;;;;5099664;27;20035;-73
2022/04/13 09:37:07;;;;;;;9.57;6.85;;;18.40;99.90;;;;;;5134755;27;20035;-73
2022/04/13 09:39:33;;;;;;;10.02;7.55;;;18.70;99.90;;;;;;5137344;27;20049;-72
2022/04/13 09:42:03;;;;;;;11.00;7.45;;;18.50;99.90;;;;;;5132947;27;20039;-73
2022/04/13 09:44:30;;;;;;;12.63;8.07;;;18.80;99.90;;;;;;5137089;27;20307;-73
2022/04/13 09:47:06;;;;;;;8.48;6.60;;;19.00;99.90;;;;;;5120063;27;20473;-73
2022/04/13 09:49:32;;;;;;;7.43;6.25;;;19.50;99.90;;;;;;5119606;27;20047;-74
2022/04/13 09:52:00;;;;;;;8.70;6.72;;;19.70;99.90;;;;;;5120032;27;20118;-74
2022/04/13 09:54:27;;;;;;;10.82;6.40;;;19.90;99.90;;;;;;5119463;27;20105;-74
2022/04/13 09:56:53;;;;;;;7.05;6.00;;;19.90;99.90;;;;;;5119938;27;20301;-74
2022/04/13 09:59:27;;;;;;;7.32;6.28;;;20.00;99.90;;;;;;5102835;27;20337;-74
2022/04/13 10:01:53;;;;;;;7.90;6.35;;;19.70;99.90;;;;;;5120028;27;20233;-73
2022/04/13 10:04:31;;;;;;;10.35;7.35;;;19.60;99.90;;;;;;5136695;27;20038;-73
2022/04/13 10:07:15;;;;;;;9.27;6.45;;;19.80;99.90;;;;;;5119443;27;20084;-74
2022/04/13 10:09:41;;;;;;;8.70;5.53;;;19.80;99.90;;;;;;5119532;27;20109;-74
2022/04/13 10:12:09;;;;;;;8.70;6.03;;;19.90;99.90;;;;;;5136564;27;20034;-74
2022/04/13 10:14:35;;;;;;;8.25;5.80;;;20.30;99.90;;;;;;5136949;27;20046;-72
2022/04/13 10:17:15;;;;;;;9.15;6.35;;;20.20;99.90;;;;;;5119878;27;20042;-72
2022/04/13 10:19:42;;;;;;;9.35;6.30;;;19.90;99.90;;;;;;5120041;27;20053;-73
2022/04/13 10:22:09;;;;;;;12.50;6.70;;;20.00;99.90;;;;;;5136628;27;20050;-72
2022/04/13 10:24:37;;;;;;;8.82;6.05;;;19.80;99.90;;;;;;5136625;27;20042;-72
2022/04/13 10:27:06;;;;;;;10.38;7.10;;;19.50;99.90;;;;;;5136436;27;20066;-73
2022/04/13 10:29:33;;;;;;;10.02;6.15;;;19.40;99.90;;;;;;5136693;27;20094;-72
2022/04/13 10:32:14;;;;;;;7.50;5.10;;;19.60;99.90;;;;;;5120148;27;20197;-74
2022/04/13 10:34:40;;;;;;;7.70;5.32;;;19.90;99.90;;;;;;5140221;27;20472;-73
2022/04/13 10:37:07;;;;;;;6.15;4.78;;;19.60;99.90;;;;;;5123424;27;20066;-73
2022/04/13 10:39:33;;;;;;;6.22;3.92;;;19.40;99.90;;;;;;5123403;27;20080;-74
2022/04/13 10:42:02;;;;;;;5.32;3.42;;;19.60;99.90;;;;;;5106882;27;20220;-73
2022/04/13 10:44:41;;;;;;;5.70;3.47;;;20.20;99.90;;;;;;5140873;27;20042;-72
2022/04/13 10:47:09;;;;;;;7.68;4.60;;;19.80;99.90;;;;;;5123156;27;20148;-73
2022/04/13 10:49:45;;;;;;;5.03;3.40;;;20.30;99.90;;;;;;5140156;27;20126;-73
2022/04/13 10:52:19;;;;;;;6.70;4.40;;;20.60;99.90;;;;;;5140041;27;20050;-73
2022/04/13 10:54:50;;;;;;;7.13;3.60;;;20.70;99.90;;;;;;5123174;27;20041;-72
2022/04/13 10:57:20;;;;;;;6.70;4.15;;;21.20;99.90;;;;;;5139915;27;20042;-72
2022/04/13 10:59:52;;;;;;;6.25;3.92;;;20.90;99.90;;;;;;5122599;27;20034;-72
2022/04/13 11:02:32;;;;;;;8.13;3.78;;;21.10;99.90;;;;;;5140042;27;20040;-73
2022/04/13 11:04:59;;;;;;;5.82;2.90;;;21.00;99.90;;;;;;5123534;27;20042;-73
2022/04/13 11:07:25;;;;;;;5.97;3.30;;;20.90;99.90;;;;;;5139638;27;20050;-73
2022/04/13 11:09:57;;;;;;;7.90;3.33;;;20.60;99.90;;;;;;5122474;27;20097;-72
2022/04/13 11:12:25;;;;;;;6.13;3.40;;;20.50;99.90;;;;;;5139834;27;20344;-72
2022/04/13 11:14:53;;;;;;;6.30;3.40;;;20.40;99.90;;;;;;5122656;27;20333;-73
2022/04/13 11:17:19;;;;;;;9.57;3.60;;;20.40;99.90;;;;;;5139337;27;20038;-73
2022/04/13 11:19:47;;;;;;;5.63;3.45;;;20.40;99.90;;;;;;5122515;27;20038;-74
2022/04/13 11:22:16;;;;;;;7.20;3.80;;;20.50;99.90;;;;;;5106241;27;20035;-73
2022/04/13 11:24:54;;;;;;;7.35;4.25;;;20.70;99.90;;;;;;5122419;27;20042;-73
2022/04/13 11:27:20;;;;;;;6.57;4.10;;;20.60;99.90;;;;;;5118459;27;20308;-72
2022/04/13 11:29:57;;;;;;;9.13;4.65;;;20.50;99.90;;;;;;5118784;27;20075;-72
2022/04/13 11:32:31;;;;;;;6.90;3.90;;;20.60;99.90;;;;;;5118775;27;20180;-71
2022/04/13 11:34:57;;;;;;;5.30;3.38;;;20.10;99.90;;;;;;5118806;27;20283;-73
2022/04/13 11:37:26;;;;;;;3.80;2.53;;;20.40;99.90;;;;;;5118572;27;20042;-73
2022/04/13 11:39:57;;;;;;;4.80;2.47;;;20.50;99.90;;;;;;5101613;27;20390;-71
2022/04/13 11:42:25;;;;;;;5.93;2.95;;;20.30;99.90;;;;;;5118441;27;20344;-72
2022/04/13 11:45:12;;;;;;;4.38;2.80;;;19.90;99.90;;;;;;5118486;27;20035;-72
2022/04/13 11:47:39;;;;;;;4.78;2.88;;;19.90;99.90;;;;;;5101186;27;20046;-73
2022/04/13 11:50:26;;;;;;;6.22;2.83;;;20.00;99.90;;;;;;5098221;28;20423;-73
2022/04/13 11:53:03;;;;;;;6.22;2.72;;;19.90;99.90;;;;;;5085003;28;20093;-71
2022/04/13 11:55:37;;;;;;;5.13;2.70;;;19.60;99.90;;;;;;5114795;28;20119;-72
2022/04/13 11:58:09;;;;;;;5.63;3.30;;;19.70;99.90;;;;;;5098291;28;20075;-72
2022/04/13 12:00:41;;;;;;;5.93;3.42;;;19.70;99.90;;;;;;5114886;28;20044;-72
2022/04/13 12:03:16;;;;;;;6.70;3.22;;;19.30;99.90;;;;;;5097621;28;20043;-74
2022/04/13 12:05:44;;;;;;;5.68;3.60;;;19.30;99.90;;;;;;5097880;28;20097;-72
2022/04/13 12:08:13;;;;;;;6.28;3.70;;;19.10;99.90;;;;;;5097631;28;20040;-72
2022/04/13 12:10:45;;;;;;;6.28;3.88;;;19.10;99.90;;;;;;5116432;28;20069;-72
2022/04/13 12:13:11;;;;;;;7.38;4.07;;;18.80;99.90;;;;;;5097477;28;20365;-72
2022/04/13 12:15:45;;;;;;;8.27;4.95;;;18.90;99.90;;;;;;5097821;28;20031;-73
2022/04/13 12:18:11;;;;;;;7.70;4.10;;;19.00;99.90;;;;;;5097462;28;20218;-71
2022/04/13 12:20:37;;;;;;;6.65;4.25;;;19.10;99.90;;;;;;5114485;28;20085;-72
2022/04/13 12:23:25;;;;;;;6.10;4.20;;;18.80;99.90;;;;;;5097470;28;20071;-73
2022/04/13 12:25:53;;;;;;;6.70;4.70;;;18.90;99.90;;;;;;5115757;27;20044;-72
2022/04/13 12:28:22;;;;;;;9.85;4.10;;;18.60;99.90;;;;;;5117568;27;20050;-73
2022/04/13 12:30:59;;;;;;;6.47;3.30;;;18.70;99.90;;;;;;5101003;27;20039;-71
2022/04/13 12:33:26;;;;;;;6.93;3.90;;;18.80;99.90;;;;;;5117310;27;20235;-71
2022/04/13 12:35:55;;;;;;;8.95;4.13;;;18.70;99.90;;;;;;5135088;27;20091;-71
2022/04/13 12:38:25;;;;;;;7.28;4.15;;;18.70;99.90;;;;;;5134375;27;20043;-72
2022/04/13 12:41:17;;;;;;;11.07;4.00;;;18.80;99.90;;;;;;5134970;27;20034;-72